Time;durP1;ratioP1;P1;durP2;ratioP2;P2;SDS_P1;SDS_P2;PMS_P1;PMS_P2;Temp;Humidity;BMP_temperature;BMP_pressure;BME280_temperature;BME280_humidity;BME280_pressure;Samples;Min_cycle;Max_cycle;Signal;HPM_P1;HPM_P2
2023/08/05 00:01:18;;;;;;;6.90;3.00;;;;;;;14.78;100.00;99960.72;5073644;28;20661;-58
2023/08/05 00:03:49;;;;;;;4.07;3.07;;;;;;;14.78;100.00;99952.84;5084132;28;20294;-57
2023/08/05 00:06:21;;;;;;;6.47;3.50;;;;;;;14.75;100.00;99945.94;5073674;28;20653;-60
2023/08/05 00:08:52;;;;;;;5.07;2.93;;;;;;;14.75;100.00;99939.78;5084373;28;20345;-59
2023/08/05 00:11:22;;;;;;;4.17;2.60;;;;;;;14.80;100.00;99938.72;5073564;28;20285;-57
2023/08/05 00:13:53;;;;;;;5.80;3.03;;;;;;;14.87;100.00;99950.69;5061976;28;20740;-59
2023/08/05 00:16:23;;;;;;;9.60;3.30;;;;;;;14.92;100.00;99950.50;5066539;28;20293;-59
2023/08/05 00:18:54;;;;;;;5.80;2.90;;;;;;;14.94;100.00;99940.78;5067362;28;20278;-58
2023/08/05 00:21:26;;;;;;;5.83;3.07;;;;;;;14.95;100.00;99947.78;5079725;28;20284;-56
2023/08/05 00:23:57;;;;;;;4.10;2.93;;;;;;;14.98;100.00;99958.19;5073400;28;20286;-59
2023/08/05 00:26:27;;;;;;;8.13;2.97;;;;;;;15.00;100.00;99972.13;5084112;28;20775;-59
2023/08/05 00:28:58;;;;;;;6.77;3.20;;;;;;;15.02;100.00;99958.91;5074064;28;20308;-59
2023/08/05 00:31:28;;;;;;;6.90;3.40;;;;;;;15.06;100.00;99955.25;5083821;28;20281;-57
2023/08/05 00:33:59;;;;;;;7.57;3.13;;;;;;;15.22;100.00;99971.25;5073472;28;20304;-58
2023/08/05 00:36:32;;;;;;;6.23;3.27;;;;;;;15.41;100.00;99966.13;5084121;28;20274;-58
2023/08/05 00:39:03;;;;;;;8.17;3.50;;;;;;;15.48;100.00;99955.28;5071971;28;20646;-58
2023/08/05 00:41:33;;;;;;;4.37;2.47;;;;;;;15.68;100.00;99943.06;5083770;28;20271;-56
2023/08/05 00:44:04;;;;;;;7.57;2.83;;;;;;;15.34;100.00;99859.34;5073285;28;20282;-59
2023/08/05 00:46:35;;;;;;;4.70;2.83;;;;;;;15.98;100.00;99950.59;5084540;28;20312;-59
2023/08/05 00:49:06;;;;;;;5.60;2.47;;;;;;;16.18;100.00;99963.75;5076408;28;20289;-58
2023/08/05 00:51:39;;;;;;;3.33;2.10;;;;;;;16.40;100.00;99968.91;5087646;28;20669;-56
2023/08/05 00:54:09;;;;;;;6.30;2.63;;;;;;;16.52;98.74;99956.94;5076748;28;20338;-57
2023/08/05 00:56:40;;;;;;;4.57;2.30;;;;;;;16.63;94.02;99949.41;5087359;28;20417;-56
2023/08/05 00:59:11;;;;;;;3.67;2.13;;;;;;;16.80;91.73;99941.59;5076639;28;20279;-56
2023/08/05 01:01:42;;;;;;;3.33;2.23;;;;;;;16.88;92.71;99927.19;5084196;28;20357;-56
2023/08/05 01:04:13;;;;;;;3.37;2.10;;;;;;;17.11;90.26;99945.38;5077062;28;20350;-57
2023/08/05 01:06:46;;;;;;;4.37;2.27;;;;;;;17.37;89.12;99935.31;5087320;28;20342;-58
2023/08/05 01:09:17;;;;;;;8.13;2.40;;;;;;;17.54;92.91;99934.50;5071393;28;20324;-58
2023/08/05 01:11:49;;;;;;;5.87;2.73;;;;;;;17.59;93.51;99935.97;5067710;28;20281;-57
2023/08/05 01:14:20;;;;;;;3.53;2.40;;;;;;;17.59;92.19;99941.25;5066865;28;20348;-58
2023/08/05 01:16:51;;;;;;;8.77;2.83;;;;;;;17.63;92.37;99942.81;5064186;28;20290;-59
2023/08/05 01:19:23;;;;;;;9.03;2.40;;;;;;;17.61;89.66;99943.81;5087479;28;20413;-59
2023/08/05 01:22:10;;;;;;;4.30;2.70;;;;;;;17.83;88.48;99949.75;5076576;28;20743;-60
2023/08/05 01:24:54;;;;;;;3.00;1.90;;;;;;;18.09;83.15;99943.09;5086841;28;20269;-58
2023/08/05 01:27:27;;;;;;;5.07;2.33;;;;;;;18.14;82.74;99937.56;5076289;28;20315;-59
2023/08/05 01:29:58;;;;;;;3.27;1.50;;;;;;;18.29;82.17;99947.34;5075936;28;20278;-59
2023/08/05 01:32:30;;;;;;;2.73;1.37;;;;;;;18.44;79.50;99932.44;5086561;28;20304;-59
2023/08/05 01:35:01;;;;;;;2.50;1.60;;;;;;;18.59;79.37;99937.81;5076134;28;20751;-59
2023/08/05 01:37:32;;;;;;;2.30;1.33;;;;;;;18.54;75.52;99946.00;5086613;28;20304;-57
2023/08/05 01:40:02;;;;;;;4.10;1.50;;;;;;;18.63;78.64;99949.97;5075902;28;20812;-58
2023/08/05 01:42:35;;;;;;;3.17;1.80;;;;;;;18.79;79.53;99942.91;5086250;28;20794;-60
2023/08/05 01:45:06;;;;;;;2.60;1.60;;;;;;;18.87;78.52;99922.19;5076041;28;20281;-58
2023/08/05 01:47:37;;;;;;;3.30;1.90;;;;;;;18.97;76.45;99933.09;5086444;28;20281;-60
2023/08/05 01:50:08;;;;;;;4.43;1.97;;;;;;;18.95;77.97;99929.69;5075180;28;20317;-57
2023/08/05 01:52:39;;;;;;;4.23;1.70;;;;;;;18.96;78.52;99932.22;5086999;28;20281;-57
2023/08/05 01:55:09;;;;;;;5.63;1.63;;;;;;;18.95;77.89;99935.81;5076091;28;20352;-58
2023/08/05 01:57:42;;;;;;;3.10;1.80;;;;;;;19.00;78.55;99946.16;5081975;28;20325;-60
2023/08/05 02:00:13;;;;;;;7.90;2.10;;;;;;;19.04;78.61;99945.03;5072512;28;20282;-57
2023/08/05 02:02:44;;;;;;;2.33;1.73;;;;;;;19.03;77.47;99932.75;5073580;28;20608;-57
2023/08/05 02:05:15;;;;;;;3.13;1.70;;;;;;;19.02;76.67;99924.88;5057621;28;20266;-56
2023/08/05 02:07:46;;;;;;;3.50;1.57;;;;;;;19.11;77.28;99929.66;5071679;28;20647;-57
2023/08/05 02:10:17;;;;;;;3.67;2.03;;;;;;;19.10;76.86;99943.84;5064966;28;20285;-58
2023/08/05 02:12:49;;;;;;;3.07;1.80;;;;;;;19.09;77.37;99942.13;5079287;28;20761;-58
2023/08/05 02:15:20;;;;;;;3.10;1.53;;;;;;;19.15;78.38;99962.97;5072382;28;20797;-57
2023/08/05 02:17:50;;;;;;;4.97;2.00;;;;;;;19.18;77.25;99965.44;5066626;28;20347;-57
2023/08/05 02:20:21;;;;;;;2.90;1.70;;;;;;;19.11;73.71;99959.63;5078664;28;20270;-57
2023/08/05 02:22:52;;;;;;;2.40;1.60;;;;;;;19.08;73.52;99940.44;5075440;28;20270;-56
2023/08/05 02:25:22;;;;;;;5.77;1.93;;;;;;;19.18;74.40;99941.63;5085860;28;20369;-58
2023/08/05 02:27:54;;;;;;;2.93;1.30;;;;;;;19.32;76.58;99939.03;5075020;28;20286;-57
2023/08/05 02:30:25;;;;;;;3.97;1.57;;;;;;;19.29;75.18;99944.47;5065605;28;20657;-58
2023/08/05 02:32:55;;;;;;;4.57;1.67;;;;;;;19.29;76.34;99925.94;5061074;28;20294;-58
2023/08/05 02:35:26;;;;;;;4.03;2.00;;;;;;;19.32;75.23;99917.84;5075275;28;21160;-58
2023/08/05 02:37:56;;;;;;;2.20;1.53;;;;;;;19.36;72.19;99919.34;5075885;28;20273;-57
2023/08/05 02:40:29;;;;;;;3.63;1.77;;;;;;;19.36;74.11;99929.94;5085630;28;20291;-57
2023/08/05 02:43:01;;;;;;;2.20;1.73;;;;;;;19.40;74.46;99931.47;5074798;28;20330;-58
2023/08/05 02:45:31;;;;;;;3.83;1.80;;;;;;;19.44;75.11;99936.59;5085736;28;20305;-58
2023/08/05 02:48:09;;;;;;;3.50;1.80;;;;;;;19.35;73.59;99928.25;5061303;28;20656;-58
2023/08/05 02:50:45;;;;;;;1.53;1.40;;;;;;;19.44;74.34;99939.25;5070580;28;20292;-59
2023/08/05 02:53:15;;;;;;;3.23;1.60;;;;;;;19.42;74.00;99939.34;5059960;28;20419;-58
2023/08/05 02:55:46;;;;;;;3.27;1.50;;;;;;;19.55;74.44;99940.34;5071586;28;20308;-59
2023/08/05 02:58:20;;;;;;;5.63;1.60;;;;;;;19.55;73.63;99939.50;5060835;28;20294;-58
2023/08/05 03:00:51;;;;;;;3.53;2.07;;;;;;;19.64;72.40;99943.38;5062379;28;20585;-58
2023/08/05 03:03:21;;;;;;;3.67;1.67;;;;;;;19.67;73.89;99938.81;5071867;28;20276;-59
2023/08/05 03:05:52;;;;;;;3.60;1.70;;;;;;;19.76;75.21;99940.03;5060115;28;20266;-57
2023/08/05 03:08:23;;;;;;;5.73;1.70;;;;;;;19.82;73.47;99937.88;5070545;28;20712;-58
2023/08/05 03:10:58;;;;;;;5.63;1.90;;;;;;;19.83;72.01;99939.56;5059587;28;20309;-59
2023/08/05 03:13:31;;;;;;;3.10;1.83;;;;;;;19.89;71.80;99922.44;5071659;28;20420;-61
2023/08/05 03:16:10;;;;;;;2.70;1.47;;;;;;;19.64;69.98;99891.22;5059273;28;20285;-58
2023/08/05 03:18:40;;;;;;;;;;;;;;;19.79;70.82;99906.25;5070680;28;20282;-60
2023/08/05 03:21:11;;;;;;;2.87;1.60;;;;;;;19.81;70.94;99909.66;5059944;28;20459;-59
2023/08/05 03:23:43;;;;;;;4.13;1.80;;;;;;;19.76;70.25;99910.88;5070722;28;20277;-58
2023/08/05 03:26:14;;;;;;;2.90;1.60;;;;;;;19.67;70.63;99912.28;5058795;28;20986;-58
2023/08/05 03:28:49;;;;;;;3.03;1.70;;;;;;;19.65;70.57;99924.75;5069760;28;20375;-59
2023/08/05 03:31:30;;;;;;;2.70;1.80;;;;;;;19.54;71.85;99879.47;5059397;28;20286;-58
2023/08/05 03:34:06;;;;;;;2.50;1.83;;;;;;;19.66;71.21;99897.28;5060005;28;20290;-58
2023/08/05 03:36:39;;;;;;;4.20;2.00;;;;;;;19.59;71.19;99898.59;5069945;28;20305;-58
2023/08/05 03:39:12;;;;;;;3.73;1.87;;;;;;;19.46;70.28;99897.63;5057743;28;20280;-57
2023/08/05 03:41:47;;;;;;;3.17;1.90;;;;;;;19.48;71.91;99906.34;5069958;28;20306;-59
2023/08/05 03:44:24;;;;;;;2.97;1.90;;;;;;;19.58;72.01;99892.44;5058990;28;20270;-59
2023/08/05 03:47:01;;;;;;;5.47;2.10;;;;;;;19.62;71.13;99882.53;5060367;28;20288;-58
2023/08/05 03:49:34;;;;;;;5.50;1.63;;;;;;;19.62;70.19;99893.13;5069965;28;20350;-58
2023/08/05 03:52:05;;;;;;;5.00;1.50;;;;;;;19.50;66.84;99896.50;5060152;28;20289;-59
2023/08/05 03:54:36;;;;;;;2.17;1.53;;;;;;;19.29;65.92;99907.41;5070185;28;20749;-58
2023/08/05 03:57:10;;;;;;;3.33;1.83;;;;;;;19.18;67.65;99891.28;5060275;28;20604;-59
2023/08/05 03:59:50;;;;;;;4.85;2.00;;;;;;;19.23;68.66;99902.47;5071115;28;20285;-58
2023/08/05 04:02:21;;;;;;;4.40;1.90;;;;;;;19.32;69.25;99901.94;5059399;28;20374;-58
2023/08/05 04:04:53;;;;;;;3.13;1.60;;;;;;;19.42;70.64;99891.66;5060327;28;20293;-60
2023/08/05 04:07:25;;;;;;;4.40;1.77;;;;;;;19.55;70.16;99891.78;5070943;28;20341;-59
2023/08/05 04:09:57;;;;;;;3.40;1.83;;;;;;;19.68;70.78;99891.94;5059385;28;20286;-58
2023/08/05 04:12:31;;;;;;;5.93;2.40;;;;;;;19.54;69.62;99863.56;5069006;28;20289;-58
2023/08/05 04:15:07;;;;;;;3.40;1.77;;;;;;;19.80;69.17;99894.69;5060116;28;20292;-59
2023/08/05 04:17:39;;;;;;;2.90;1.53;;;;;;;19.78;67.91;99893.09;5069981;28;20296;-58
2023/08/05 04:20:12;;;;;;;3.43;1.80;;;;;;;19.58;68.61;99859.78;5060406;28;20626;-58
2023/08/05 04:22:43;;;;;;;3.13;1.60;;;;;;;19.77;68.53;99894.88;5074277;28;20309;-58
2023/08/05 04:25:14;;;;;;;3.53;1.97;;;;;;;19.86;69.40;99901.41;5062151;28;20290;-58
2023/08/05 04:27:44;;;;;;;4.33;1.77;;;;;;;19.80;68.93;99897.34;5072871;28;20439;-58
2023/08/05 04:30:16;;;;;;;3.37;1.73;;;;;;;19.83;70.17;99894.50;5062569;28;20372;-58
2023/08/05 04:32:47;;;;;;;4.57;1.80;;;;;;;19.93;69.65;99896.59;5074840;28;20357;-60
2023/08/05 04:35:19;;;;;;;3.83;1.80;;;;;;;19.96;70.08;99896.41;5064280;28;20393;-57
2023/08/05 04:37:51;;;;;;;2.97;1.87;;;;;;;19.84;68.00;99898.00;5065824;28;20678;-58
2023/08/05 04:40:25;;;;;;;2.83;1.90;;;;;;;19.76;68.50;99898.47;5073179;28;20306;-58
2023/08/05 04:42:56;;;;;;;4.60;1.90;;;;;;;19.74;68.15;99903.00;5062869;28;20281;-58
2023/08/05 04:45:28;;;;;;;3.47;1.80;;;;;;;19.64;69.70;99891.22;5073596;28;20281;-58
2023/08/05 04:47:59;;;;;;;3.90;1.80;;;;;;;19.56;68.58;99893.47;5063816;28;20297;-59
2023/08/05 04:50:29;;;;;;;5.83;1.70;;;;;;;19.51;69.17;99885.81;5074255;28;20282;-58
2023/08/05 04:53:00;;;;;;;4.73;2.00;;;;;;;19.46;68.92;99882.56;5062761;28;20282;-59
2023/08/05 04:55:30;;;;;;;2.20;1.80;;;;;;;19.38;70.37;99867.13;5073664;28;20744;-58
2023/08/05 04:58:01;;;;;;;3.33;1.67;;;;;;;19.34;69.62;99873.53;5063021;28;20293;-58
2023/08/05 05:00:33;;;;;;;4.87;1.87;;;;;;;19.15;69.92;99857.03;5073849;28;20335;-58
2023/08/05 05:03:04;;;;;;;3.60;1.80;;;;;;;19.22;70.20;99871.66;5061770;28;20686;-58
2023/08/05 05:05:35;;;;;;;5.17;1.70;;;;;;;19.28;71.05;99879.22;5073522;28;20274;-59
2023/08/05 05:08:06;;;;;;;4.43;2.27;;;;;;;19.22;70.35;99882.25;5062248;28;20581;-58
2023/08/05 05:10:36;;;;;;;2.97;1.70;;;;;;;19.20;69.67;99897.34;5073653;28;20282;-57
2023/08/05 05:13:07;;;;;;;6.20;2.00;;;;;;;19.22;70.56;99903.44;5062199;28;20289;-59
2023/08/05 05:15:39;;;;;;;3.87;2.00;;;;;;;19.24;70.53;99888.28;5073164;28;20286;-58
2023/08/05 05:18:09;;;;;;;2.50;1.97;;;;;;;19.25;70.53;99884.69;5061679;28;20280;-59
2023/08/05 05:20:40;;;;;;;4.17;2.17;;;;;;;19.29;70.43;99891.50;5071015;28;20313;-57
2023/08/05 05:23:10;;;;;;;4.87;2.13;;;;;;;19.26;69.85;99881.09;5062189;28;20299;-58
2023/08/05 05:25:41;;;;;;;3.37;2.03;;;;;;;19.19;70.32;99879.75;5074320;28;20294;-57
2023/08/05 05:28:11;;;;;;;4.13;1.80;;;;;;;19.10;68.97;99890.88;5062380;28;20305;-59
2023/08/05 05:30:44;;;;;;;2.63;2.13;;;;;;;19.02;69.19;99893.09;5073231;28;20617;-59
2023/08/05 05:33:14;;;;;;;3.70;2.07;;;;;;;18.93;68.83;99892.69;5060866;28;20284;-59
2023/08/05 05:35:45;;;;;;;4.17;1.93;;;;;;;18.80;69.68;99888.19;5072252;28;20337;-59
2023/08/05 05:38:16;;;;;;;4.23;2.33;;;;;;;18.72;71.06;99886.81;5061567;28;20321;-59
2023/08/05 05:40:46;;;;;;;3.30;2.17;;;;;;;18.57;71.62;99870.91;5071901;28;20277;-59
2023/08/05 05:43:17;;;;;;;3.57;1.87;;;;;;;18.52;72.44;99864.09;5061007;28;20354;-59
2023/08/05 05:45:53;;;;;;;2.47;1.90;;;;;;;18.57;71.63;99869.13;5072737;28;20278;-58
2023/08/05 05:48:24;;;;;;;7.97;1.70;;;;;;;18.61;72.27;99859.22;5061736;28;20672;-60
2023/08/05 05:50:57;;;;;;;2.13;1.60;;;;;;;18.66;72.80;99854.53;5059611;28;20323;-60
2023/08/05 05:53:28;;;;;;;3.40;1.80;;;;;;;18.64;72.23;99857.25;5072759;28;20288;-58
2023/08/05 05:56:03;;;;;;;3.60;2.10;;;;;;;18.69;72.48;99860.47;5063144;28;20294;-57
2023/08/05 05:58:48;;;;;;;2.30;1.80;;;;;;;18.68;72.07;99868.53;5072628;28;20720;-58
2023/08/05 06:01:20;;;;;;;2.90;2.20;;;;;;;18.67;72.16;99872.09;5060700;28;20282;-58
2023/08/05 06:03:51;;;;;;;2.43;1.80;;;;;;;18.67;72.11;99882.69;5062339;28;20381;-58
2023/08/05 06:06:23;;;;;;;5.83;2.10;;;;;;;18.66;72.19;99881.00;5071281;28;20724;-56
2023/08/05 06:08:53;;;;;;;5.63;1.97;;;;;;;18.59;72.16;99884.91;5060758;28;20270;-58
2023/08/05 06:11:24;;;;;;;4.73;2.20;;;;;;;18.56;73.00;99885.09;5070216;28;20755;-58
2023/08/05 06:13:54;;;;;;;4.23;2.03;;;;;;;18.47;72.75;99876.72;5060162;28;20459;-57
2023/08/05 06:16:27;;;;;;;6.40;2.10;;;;;;;18.42;72.03;99868.19;5070979;28;20292;-59
2023/08/05 06:18:57;;;;;;;3.60;2.00;;;;;;;18.34;71.92;99870.38;5061191;28;20286;-60
2023/08/05 06:21:28;;;;;;;3.17;1.67;;;;;;;18.25;72.13;99865.63;5073296;28;20629;-58
2023/08/05 06:23:59;;;;;;;6.80;2.30;;;;;;;18.15;72.30;99869.69;5060060;28;20397;-59
2023/08/05 06:26:30;;;;;;;4.03;2.20;;;;;;;18.03;72.39;99869.41;5071697;28;20270;-59
2023/08/05 06:29:00;;;;;;;3.13;2.00;;;;;;;17.97;73.00;99872.41;5061041;28;20266;-60
2023/08/05 06:31:33;;;;;;;3.10;1.77;;;;;;;17.93;73.96;99873.47;5070759;28;20752;-58
2023/08/05 06:34:04;;;;;;;3.63;2.03;;;;;;;17.84;73.62;99871.31;5060388;28;20282;-59
2023/08/05 06:36:35;;;;;;;5.87;1.93;;;;;;;17.83;74.00;99874.91;5071914;28;20289;-59
2023/08/05 06:39:05;;;;;;;4.97;2.23;;;;;;;17.83;74.38;99872.25;5059857;28;20652;-58
2023/08/05 06:41:36;;;;;;;4.90;1.93;;;;;;;17.80;74.55;99875.06;5069997;28;20373;-58
2023/08/05 06:44:07;;;;;;;3.37;2.27;;;;;;;17.76;74.22;99862.91;5059689;28;20590;-59
2023/08/05 06:46:47;;;;;;;3.33;2.27;;;;;;;17.68;74.08;99882.66;5070651;28;20294;-58
2023/08/05 06:49:20;;;;;;;3.92;2.30;;;;;;;17.59;75.38;99885.75;5060828;28;20273;-58
2023/08/05 06:51:51;;;;;;;5.10;2.20;;;;;;;17.55;75.11;99892.16;5065384;28;20056;-57
2023/08/05 06:54:25;;;;;;;3.13;1.87;;;;;;;17.47;74.76;99889.03;5069652;28;20274;-58
2023/08/05 06:56:55;;;;;;;5.83;2.63;;;;;;;17.42;75.09;99885.78;5057885;28;21164;-58
2023/08/05 06:59:26;;;;;;;3.20;2.33;;;;;;;17.34;75.43;99874.75;5070361;28;20364;-58
2023/08/05 07:01:59;;;;;;;5.10;2.13;;;;;;;17.42;75.42;99875.19;5073489;28;20282;-59
2023/08/05 07:04:29;;;;;;;4.30;2.37;;;;;;;17.38;75.15;99873.66;5085275;28;20292;-59
2023/08/05 07:07:00;;;;;;;4.47;2.40;;;;;;;17.33;75.25;99865.13;5081494;28;20298;-59
2023/08/05 07:09:31;;;;;;;3.00;2.00;;;;;;;17.28;75.39;99867.16;5072030;28;20362;-60
2023/08/05 07:12:02;;;;;;;7.03;2.60;;;;;;;17.21;75.09;99867.44;5097188;28;20285;-60
2023/08/05 07:14:33;;;;;;;3.57;2.13;;;;;;;17.18;76.20;99864.97;5098246;28;20322;-59
2023/08/05 07:17:06;;;;;;;7.07;2.60;;;;;;;17.25;76.70;99873.44;5064116;28;20281;-59
2023/08/05 07:19:36;;;;;;;4.30;2.30;;;;;;;17.23;76.09;99870.88;5081485;28;20309;-58
2023/08/05 07:22:07;;;;;;;5.87;2.50;;;;;;;17.12;76.40;99873.16;5062920;28;20276;-58
2023/08/05 07:24:38;;;;;;;4.33;2.00;;;;;;;17.08;76.05;99892.75;5096989;28;20303;-60
2023/08/05 07:27:09;;;;;;;4.13;2.30;;;;;;;17.00;75.44;99873.81;5113703;28;20277;-59
2023/08/05 07:29:40;;;;;;;5.33;2.27;;;;;;;16.90;75.46;99890.97;5101381;28;20598;-59
2023/08/05 07:32:12;;;;;;;4.20;2.73;;;;;;;16.85;76.26;99885.06;5091183;28;20276;-58
2023/08/05 07:34:43;;;;;;;5.77;2.80;;;;;;;16.84;75.67;99883.38;5072384;28;20271;-60
2023/08/05 07:37:14;;;;;;;6.73;2.60;;;;;;;16.77;76.20;99878.38;5064721;28;20284;-60
2023/08/05 07:39:47;;;;;;;3.87;2.70;;;;;;;16.73;76.71;99882.09;5075535;28;20768;-59
2023/08/05 07:42:20;;;;;;;4.13;2.67;;;;;;;16.54;76.25;99865.41;5082994;28;20305;-60
2023/08/05 07:44:53;;;;;;;5.63;2.30;;;;;;;16.74;76.93;99889.06;5079607;28;20347;-58
2023/08/05 07:47:25;;;;;;;4.17;2.70;;;;;;;16.81;77.05;99901.06;5069176;28;20738;-59
2023/08/05 07:49:56;;;;;;;4.13;2.30;;;;;;;16.77;76.79;99910.03;5060271;28;20273;-58
2023/08/05 07:52:28;;;;;;;5.27;2.30;;;;;;;16.72;77.13;99912.00;5067808;28;20285;-59
2023/08/05 07:54:58;;;;;;;4.30;2.50;;;;;;;16.66;76.75;99901.75;5062850;28;20278;-59
2023/08/05 07:57:29;;;;;;;5.50;2.50;;;;;;;16.59;77.40;99910.88;5076028;28;20282;-58
2023/08/05 07:59:59;;;;;;;4.47;2.67;;;;;;;16.54;77.60;99918.16;5073040;28;20270;-59
2023/08/05 08:02:32;;;;;;;6.30;2.47;;;;;;;16.47;77.77;99907.03;5083903;28;20561;-59
2023/08/05 08:05:05;;;;;;;5.03;2.47;;;;;;;16.38;76.78;99903.06;5096898;28;20766;-58
2023/08/05 08:07:35;;;;;;;4.27;2.43;;;;;;;16.30;76.38;99894.66;5106659;28;20346;-59
2023/08/05 08:10:07;;;;;;;3.20;2.17;;;;;;;16.27;76.67;99878.94;5076716;28;20762;-58
2023/08/05 08:12:37;;;;;;;4.83;2.80;;;;;;;16.25;77.81;99862.38;5084225;28;20416;-58
2023/08/05 08:15:09;;;;;;;4.17;2.20;;;;;;;16.27;78.22;99872.81;5065574;28;20339;-59
2023/08/05 08:17:41;;;;;;;6.43;3.00;;;;;;;16.30;78.41;99868.28;5076450;28;20285;-59
2023/08/05 08:20:12;;;;;;;4.00;2.40;;;;;;;16.30;79.48;99881.47;5080908;28;20309;-59
2023/08/05 08:22:42;;;;;;;7.10;2.87;;;;;;;16.24;81.22;99863.28;5074161;28;20327;-58
2023/08/05 08:25:13;;;;;;;4.80;2.40;;;;;;;16.35;80.02;99876.84;5069800;28;20343;-59
2023/08/05 08:27:46;;;;;;;3.40;2.60;;;;;;;16.39;80.31;99870.47;5073535;28;20717;-58
2023/08/05 08:30:17;;;;;;;4.67;2.90;;;;;;;16.39;79.70;99873.13;5085996;28;20363;-59
2023/08/05 08:32:49;;;;;;;6.33;3.10;;;;;;;16.41;80.31;99869.56;5080305;28;20269;-59
2023/08/05 08:35:20;;;;;;;4.83;3.37;;;;;;;16.40;80.63;99874.00;5067300;28;20368;-59
2023/08/05 08:37:51;;;;;;;4.07;2.70;;;;;;;16.44;80.86;99886.09;5079652;28;20369;-58
2023/08/05 08:40:21;;;;;;;6.70;3.53;;;;;;;16.43;79.99;99894.09;5084221;28;20289;-59
2023/08/05 08:42:53;;;;;;;8.03;5.00;;;;;;;16.11;79.58;99835.78;5076891;28;20281;-59
2023/08/05 08:45:26;;;;;;;6.90;4.70;;;;;;;16.38;80.72;99876.69;5083969;28;20262;-59
2023/08/05 08:47:58;;;;;;;3.30;2.30;;;;;;;16.30;80.01;99867.41;5080860;28;20273;-58
2023/08/05 08:50:32;;;;;;;7.27;4.07;;;;;;;16.20;80.43;99872.28;5089358;28;20372;-59
2023/08/05 08:53:03;;;;;;;7.73;3.60;;;;;;;16.17;80.87;99888.22;5062351;28;20289;-59
2023/08/05 08:55:34;;;;;;;4.87;3.03;;;;;;;16.13;81.09;99891.94;5077404;28;20278;-58
2023/08/05 08:58:05;;;;;;;6.07;3.07;;;;;;;16.12;81.68;99888.41;5080747;28;20368;-59
2023/08/05 09:00:37;;;;;;;5.00;2.57;;;;;;;16.08;80.40;99896.56;5091632;28;20277;-57
2023/08/05 09:03:11;;;;;;;6.70;3.13;;;;;;;16.08;81.76;99899.19;5058716;28;20282;-58
2023/08/05 09:05:45;;;;;;;6.17;3.00;;;;;;;16.04;82.21;99897.59;5070551;28;20283;-57
2023/08/05 09:08:19;;;;;;;3.80;2.47;;;;;;;15.97;82.51;99897.00;5060298;28;20309;-58
2023/08/05 09:10:50;;;;;;;4.67;2.47;;;;;;;15.91;83.06;99898.16;5068783;28;20362;-57
2023/08/05 09:13:22;;;;;;;6.60;3.00;;;;;;;15.92;83.70;99891.94;5072487;28;20374;-58
2023/08/05 09:15:53;;;;;;;4.70;2.57;;;;;;;15.82;83.68;99888.00;5062524;28;20744;-58
2023/08/05 09:19:04;;;;;;;6.47;2.40;;;;;;;15.82;83.83;99888.00;5072558;28;20298;-58
2023/08/05 09:21:47;;;;;;;7.73;2.90;;;;;;;15.78;81.53;99875.91;5072280;28;20806;-59
2023/08/05 09:24:28;;;;;;;7.17;2.57;;;;;;;15.68;81.55;99871.94;5061953;28;20388;-59
2023/08/05 09:27:01;;;;;;;6.97;2.90;;;;;;;15.67;82.60;99888.66;5062536;28;20286;-58
2023/08/05 09:29:36;;;;;;;6.50;2.67;;;;;;;15.64;82.43;99889.63;5073286;28;20368;-57
2023/08/05 09:32:08;;;;;;;10.73;3.00;;;;;;;15.62;82.91;99890.63;5061861;28;20371;-57
2023/08/05 09:34:49;;;;;;;5.10;3.10;;;;;;;15.59;83.54;99888.13;5073938;28;20833;-57
2023/08/05 09:37:22;;;;;;;8.07;4.63;;;;;;;15.54;83.66;99899.69;5060514;28;20269;-58
2023/08/05 09:39:55;;;;;;;5.40;3.40;;;;;;;15.53;83.88;99898.00;5059878;28;20300;-58
2023/08/05 09:42:27;;;;;;;4.90;2.93;;;;;;;15.26;84.22;99857.91;5072137;28;20835;-58
2023/08/05 09:45:01;;;;;;;9.97;3.80;;;;;;;15.50;83.86;99902.53;5059984;28;20282;-57
2023/08/05 09:47:34;;;;;;;4.47;2.70;;;;;;;15.35;83.93;99877.72;5071798;28;20293;-58
2023/08/05 09:50:10;;;;;;;6.60;2.53;;;;;;;15.50;84.14;99903.41;5063423;28;20284;-58
2023/08/05 09:52:49;;;;;;;5.90;2.80;;;;;;;15.41;84.12;99889.78;5072169;28;20306;-58
2023/08/05 09:55:26;;;;;;;5.20;2.70;;;;;;;15.21;83.97;99859.88;5060999;28;20044;-58
2023/08/05 09:57:59;;;;;;;4.87;2.40;;;;;;;15.41;84.18;99898.53;5061228;28;20747;-58
2023/08/05 10:00:36;;;;;;;5.33;3.27;;;;;;;15.37;84.91;99896.94;5071863;28;20285;-59
2023/08/05 10:03:13;;;;;;;6.45;3.35;;;;;;;15.33;85.86;99895.38;5060142;28;25370;-58
2023/08/05 10:05:47;;;;;;;8.63;3.10;;;;;;;15.28;86.50;99897.34;5069794;28;20046;-58
2023/08/05 10:08:24;;;;;;;5.57;3.07;;;;;;;15.23;86.85;99894.03;5061916;28;20282;-59
2023/08/05 10:10:59;;;;;;;7.90;2.80;;;;;;;15.18;87.08;99901.25;5061671;28;20329;-57
2023/08/05 10:13:31;;;;;;;6.07;3.07;;;;;;;15.18;88.29;99906.53;5070716;28;20273;-59
2023/08/05 10:16:08;;;;;;;6.47;3.07;;;;;;;15.18;88.17;99911.78;5059917;28;20285;-58
2023/08/05 10:18:41;;;;;;;6.37;4.10;;;;;;;15.16;88.69;99903.09;5071025;28;20282;-58
2023/08/05 10:21:35;;;;;;;5.67;3.30;;;;;;;15.13;89.01;99914.59;5060515;28;20297;-59
2023/08/05 10:24:07;;;;;;;8.17;3.20;;;;;;;15.12;89.78;99917.28;5061214;28;20308;-58
2023/08/05 10:26:46;;;;;;;7.80;2.97;;;;;;;15.12;90.86;99933.06;5072866;28;20301;-59
2023/08/05 10:29:32;;;;;;;5.10;2.97;;;;;;;15.02;91.52;99928.19;5062148;28;20673;-58
2023/08/05 10:32:15;;;;;;;4.63;2.67;;;;;;;15.03;91.74;99945.69;5062143;28;20090;-59
2023/08/05 10:35:32;;;;;;;4.90;3.30;;;;;;;15.00;92.26;99955.47;5071224;28;20859;-59
2023/08/05 10:38:12;;;;;;;6.83;2.60;;;;;;;14.92;92.74;99957.56;5059163;28;20289;-59
2023/08/05 10:40:51;;;;;;;10.00;6.10;;;;;;;14.83;94.75;99948.25;5070806;28;20282;-58
2023/08/05 10:43:30;;;;;;;8.90;4.83;;;;;;;14.69;97.19;99927.75;5060807;28;20724;-58
2023/08/05 10:46:11;;;;;;;10.40;3.53;;;;;;;14.61;100.00;99928.03;5060334;28;20270;-59
2023/08/05 10:48:46;;;;;;;5.50;3.87;;;;;;;14.53;100.00;99935.38;5071532;28;20285;-59
2023/08/05 10:51:20;;;;;;;4.97;3.30;;;;;;;14.51;100.00;99921.38;5060236;28;20286;-57
2023/08/05 10:54:02;;;;;;;6.10;3.23;;;;;;;14.44;100.00;99898.88;5060350;28;20286;-58
2023/08/05 10:56:35;;;;;;;6.37;4.70;;;;;;;14.54;100.00;99926.56;5070988;28;20270;-57
2023/08/05 10:59:08;;;;;;;8.37;3.93;;;;;;;14.59;100.00;99924.59;5061498;28;20400;-59
2023/08/05 11:01:59;;;;;;;6.70;3.40;;;;;;;14.51;100.00;99902.97;5071534;28;20286;-58
2023/08/05 11:04:33;;;;;;;7.50;3.40;;;;;;;14.46;100.00;99897.03;5070500;28;20297;-58
2023/08/05 11:07:06;;;;;;;4.63;3.27;;;;;;;14.51;100.00;99902.97;5059347;28;20286;-58
2023/08/05 11:09:40;;;;;;;6.77;3.97;;;;;;;14.46;100.00;99897.03;5069728;28;20277;-58
2023/08/05 11:12:13;;;;;;;10.47;3.60;;;;;;;14.39;100.00;99903.44;5060803;28;20281;-58
2023/08/05 11:14:44;;;;;;;7.20;3.30;;;;;;;14.33;100.00;99909.81;5069926;28;20374;-58
2023/08/05 11:17:17;;;;;;;4.23;2.63;;;;;;;14.40;100.00;99907.78;5057544;28;20781;-59
2023/08/05 11:19:55;;;;;;;5.40;2.30;;;;;;;14.27;100.00;99880.25;5072486;28;20756;-58
2023/08/05 11:22:28;;;;;;;5.57;2.93;;;;;;;14.19;100.00;99859.53;5060053;28;20360;-58
2023/08/05 11:25:03;;;;;;;4.10;2.53;;;;;;;14.32;98.70;99894.06;5058766;28;20296;-59
2023/08/05 11:27:38;;;;;;;4.57;3.23;;;;;;;14.44;98.49;99919.91;5069377;28;20305;-58
2023/08/05 11:30:15;;;;;;;6.18;3.13;;;;;;;14.44;99.84;99914.66;5042521;28;20273;-58
2023/08/05 11:32:57;;;;;;;6.30;3.30;;;;;;;13.99;100.00;99865.53;5068553;28;20047;-58
2023/08/05 11:35:29;;;;;;;7.63;2.90;;;;;;;14.26;100.00;99925.84;5058354;28;20297;-58
2023/08/05 11:38:00;;;;;;;7.70;3.70;;;;;;;14.13;100.00;99909.69;5060653;28;20822;-58
2023/08/05 11:40:34;;;;;;;4.57;2.70;;;;;;;14.18;100.00;99919.09;5071620;28;20301;-58
2023/08/05 11:43:08;;;;;;;4.73;2.90;;;;;;;14.24;100.00;99924.13;5059784;28;20327;-59
2023/08/05 11:45:42;;;;;;;5.37;3.00;;;;;;;14.23;100.00;99911.91;5071360;28;20285;-59
2023/08/05 11:48:20;;;;;;;5.23;2.80;;;;;;;14.14;100.00;99906.97;5059911;28;20301;-58
2023/08/05 11:50:53;;;;;;;5.43;3.30;;;;;;;14.16;100.00;99909.56;5062949;28;20277;-59
2023/08/05 11:53:24;;;;;;;6.97;2.90;;;;;;;14.22;100.00;99925.94;5069505;28;20381;-58
2023/08/05 11:55:58;;;;;;;5.80;3.60;;;;;;;13.81;100.00;99867.91;5060216;28;20285;-58
2023/08/05 11:58:35;;;;;;;5.77;3.23;;;;;;;14.13;100.00;99910.53;5071751;28;20335;-58